createdAt,value
2018-08-24T00:00:34.051Z,30.3
2018-08-24T00:01:35.526Z,31.3
2018-08-24T00:02:37.157Z,31.8
2018-08-24T00:03:38.599Z,30.8
2018-08-24T00:04:40.040Z,31.3
2018-08-24T00:05:41.655Z,30.8
2018-08-24T00:06:43.275Z,30.8
2018-08-24T00:07:44.874Z,30.8
2018-08-24T00:08:46.160Z,30.8
2018-08-24T00:09:47.625Z,30.8
2018-08-24T00:10:49.093Z,29.8
2018-08-24T00:11:50.695Z,30.8
2018-08-24T00:12:52.289Z,30.8
2018-08-24T00:13:53.719Z,30.3
2018-08-24T00:14:55.161Z,30.8
2018-08-24T00:15:56.600Z,30.8
2018-08-24T00:16:58.201Z,30.3
2018-08-24T00:17:59.650Z,30.8
2018-08-24T00:19:00.922Z,30.3
2018-08-24T00:20:02.569Z,30.8
2018-08-24T00:21:04.001Z,30.8
2018-08-24T00:22:05.282Z,31.3
2018-08-24T00:23:06.732Z,30.8
2018-08-24T00:24:07.828Z,30.3
2018-08-24T00:25:09.111Z,30.8
2018-08-24T00:26:10.747Z,30.8
2018-08-24T00:27:12.181Z,30.8
2018-08-24T00:28:13.812Z,30.8
2018-08-24T00:29:15.396Z,30.8
2018-08-24T00:30:17.029Z,30.3
2018-08-24T00:31:18.450Z,30.3
2018-08-24T00:32:19.952Z,30.3
2018-08-24T00:33:21.255Z,31.3
2018-08-24T00:34:22.701Z,29.8
2018-08-24T00:35:24.319Z,30.8
2018-08-24T00:36:25.925Z,30.8
2018-08-24T00:37:27.228Z,30.8
2018-08-24T00:38:28.847Z,30.3
2018-08-24T00:39:30.475Z,30.3
2018-08-24T00:40:32.080Z,30.3
2018-08-24T00:41:33.350Z,30.8
2018-08-24T00:42:35.052Z,30.3
2018-08-24T00:43:36.597Z,30.3
2018-08-24T00:44:38.185Z,30.8
2018-08-24T00:45:39.803Z,30.3
2018-08-24T00:46:41.241Z,30.3
2018-08-24T00:47:42.862Z,30.8
2018-08-24T00:48:44.305Z,30.3
2018-08-24T00:49:45.900Z,30.3
2018-08-24T00:50:47.350Z,30.8
2018-08-24T00:51:48.828Z,29.8
2018-08-24T00:52:50.269Z,29.8
2018-08-24T00:53:51.741Z,30.8
2018-08-24T00:54:53.032Z,29.8
2018-08-24T00:55:54.645Z,30.3
2018-08-24T00:56:56.075Z,30.3
2018-08-24T00:57:57.522Z,29.8
2018-08-24T00:58:59.135Z,30.3
2018-08-24T01:00:00.759Z,30.3
2018-08-24T01:01:02.191Z,30.8
2018-08-24T01:02:03.815Z,29.8
2018-08-24T01:03:05.424Z,30.3
2018-08-24T01:04:06.864Z,30.3
2018-08-24T01:05:08.337Z,30.8
2018-08-24T01:06:09.799Z,29.8
2018-08-24T01:07:11.273Z,29.8
2018-08-24T01:08:12.918Z,30.3
2018-08-24T01:09:14.363Z,30.8
2018-08-24T01:10:15.985Z,29.8
2018-08-24T01:11:17.442Z,29.8
2018-08-24T01:12:19.076Z,29.8
2018-08-24T01:13:20.530Z,30.8
2018-08-24T01:14:22.143Z,30.3
2018-08-24T01:15:23.764Z,29.8
2018-08-24T01:16:25.206Z,29.8
2018-08-24T01:17:26.637Z,29.8
2018-08-24T01:18:28.261Z,30.3
2018-08-24T01:19:29.694Z,29.8
2018-08-24T01:20:31.344Z,29.8
2018-08-24T01:21:32.614Z,30.3
2018-08-24T01:22:34.046Z,30.3
2018-08-24T01:23:35.640Z,30.3
2018-08-24T01:24:37.055Z,30.3
2018-08-24T01:25:38.657Z,30.8
2018-08-24T01:26:40.306Z,29.8
2018-08-24T01:27:41.913Z,30.3
2018-08-24T01:28:43.344Z,30.8
2018-08-24T01:29:44.780Z,30.3
2018-08-24T01:30:46.202Z,30.8
2018-08-24T01:31:47.807Z,29.8
2018-08-24T01:32:49.263Z,30.8
2018-08-24T01:33:50.878Z,30.8
2018-08-24T01:34:52.317Z,30.3
2018-08-24T01:35:53.913Z,30.3
2018-08-24T01:36:55.200Z,30.8
2018-08-24T01:37:56.633Z,30.3
2018-08-24T01:38:58.084Z,30.8
2018-08-24T01:39:59.682Z,31.3
2018-08-24T01:41:01.296Z,31.3
2018-08-24T01:42:02.933Z,30.8
2018-08-24T01:43:04.551Z,30.8
2018-08-24T01:44:06.191Z,31.3
2018-08-24T01:45:07.789Z,31.3
2018-08-24T01:46:09.386Z,31.8
2018-08-24T01:47:11.001Z,31.8
2018-08-24T01:48:12.454Z,31.8
2018-08-24T01:49:13.749Z,31.8
2018-08-24T01:50:15.365Z,31.8
2018-08-24T01:51:16.823Z,31.8
2018-08-24T01:52:18.415Z,31.8
2018-08-24T01:53:19.690Z,31.8
2018-08-24T01:54:21.319Z,31.8
2018-08-24T01:55:22.939Z,30.8
2018-08-24T01:56:24.546Z,31.8
2018-08-24T01:57:25.985Z,31.8
2018-08-24T01:58:27.579Z,31.8
2018-08-24T01:59:29.186Z,31.3
2018-08-24T02:00:30.814Z,31.8
2018-08-24T02:01:32.104Z,32.3
2018-08-24T02:02:33.558Z,31.8
2018-08-24T02:03:35.165Z,31.3
2018-08-24T02:04:36.627Z,31.8
2018-08-24T02:05:38.224Z,32.7
2018-08-24T02:06:39.658Z,31.8
2018-08-24T02:07:41.264Z,32.3
2018-08-24T02:08:42.709Z,32.7
2018-08-24T02:09:44.336Z,32.3
2018-08-24T02:10:45.954Z,31.8
2018-08-24T02:11:47.579Z,31.8
2018-08-24T02:12:49.184Z,32.3
2018-08-24T02:13:50.630Z,31.8
2018-08-24T02:14:52.242Z,33.2
2018-08-24T02:15:53.847Z,31.8
2018-08-24T02:16:55.457Z,31.3
2018-08-24T02:17:56.907Z,32.3
2018-08-24T02:18:58.511Z,32.3
2018-08-24T02:19:59.949Z,32.3
2018-08-24T02:21:01.543Z,31.8
2018-08-24T02:22:03.128Z,32.3
2018-08-24T02:23:04.576Z,31.8
2018-08-24T02:24:06.192Z,32.3
2018-08-24T02:25:07.803Z,32.7
2018-08-24T02:26:09.416Z,31.8
2018-08-24T02:27:11.016Z,31.8
2018-08-24T02:28:12.619Z,31.8
2018-08-24T02:29:14.066Z,31.8
2018-08-24T02:30:15.683Z,31.8
2018-08-24T02:31:17.865Z,32.3
2018-08-24T02:32:19.719Z,32.3
2018-08-24T02:33:21.162Z,32.7
2018-08-24T02:34:22.772Z,31.8
2018-08-24T02:35:24.387Z,31.8
2018-08-24T02:36:25.667Z,31.3
2018-08-24T02:37:27.289Z,31.8
2018-08-24T02:38:28.894Z,32.3
2018-08-24T02:39:30.522Z,31.8
2018-08-24T02:40:31.615Z,31.8
2018-08-24T02:41:33.048Z,31.3
2018-08-24T02:42:34.680Z,31.8
2018-08-24T02:43:36.119Z,31.8
2018-08-24T02:44:37.561Z,31.8
2018-08-24T02:45:39.023Z,31.8
2018-08-24T02:46:40.455Z,31.8
2018-08-24T02:47:41.724Z,32.3
2018-08-24T02:48:43.349Z,31.8
2018-08-24T02:49:44.957Z,31.8
2018-08-24T02:50:46.254Z,31.8
2018-08-24T02:51:47.717Z,31.3
2018-08-24T02:52:49.334Z,32.3
2018-08-24T02:53:50.634Z,31.8
2018-08-24T02:54:52.284Z,31.8
2018-08-24T02:55:53.385Z,31.8
2018-08-24T02:56:54.996Z,31.8
2018-08-24T02:57:56.601Z,32.3
2018-08-24T02:58:58.243Z,31.8
2018-08-24T02:59:59.732Z,32.3
2018-08-24T03:01:01.387Z,31.3
2018-08-24T03:02:02.820Z,31.3
2018-08-24T03:03:04.447Z,31.8
2018-08-24T03:04:05.723Z,31.8
2018-08-24T03:05:07.774Z,32.3
2018-08-24T03:06:09.560Z,30.8
2018-08-24T03:07:11.149Z,31.3
2018-08-24T03:08:12.947Z,31.8
2018-08-24T03:09:14.423Z,31.8
2018-08-24T03:10:16.036Z,31.8
2018-08-24T03:11:17.460Z,31.3
2018-08-24T03:12:19.070Z,31.3
2018-08-24T03:13:20.673Z,31.3
2018-08-24T03:14:22.088Z,30.8
2018-08-24T03:15:23.701Z,31.8
2018-08-24T03:16:25.953Z,31.3
2018-08-24T03:17:27.646Z,32.3
2018-08-24T03:18:29.082Z,31.3
2018-08-24T03:19:30.697Z,30.8
2018-08-24T03:20:32.323Z,31.3
2018-08-24T03:21:33.924Z,30.8
2018-08-24T03:22:35.353Z,31.3
2018-08-24T03:23:36.808Z,30.8
2018-08-24T03:24:38.445Z,31.8
2018-08-24T03:25:39.890Z,31.3
2018-08-24T03:26:41.492Z,31.3
2018-08-24T03:27:42.926Z,31.8
2018-08-24T03:28:44.537Z,31.8
2018-08-24T03:29:46.142Z,31.3
2018-08-24T03:30:47.759Z,30.8
2018-08-24T03:31:49.407Z,31.3
2018-08-24T03:32:51.302Z,31.3
2018-08-24T03:33:52.766Z,31.3
2018-08-24T03:34:54.216Z,31.8
2018-08-24T03:35:55.801Z,32.3
2018-08-24T03:36:57.438Z,32.3
2018-08-24T03:37:59.061Z,31.8
2018-08-24T03:39:00.508Z,31.3
2018-08-24T03:40:02.147Z,31.8
2018-08-24T03:41:03.829Z,32.3
2018-08-24T03:42:05.459Z,32.3
2018-08-24T03:43:06.743Z,32.3
2018-08-24T03:44:08.170Z,31.8
2018-08-24T03:45:10.274Z,31.8
2018-08-24T03:46:11.911Z,32.7
2018-08-24T03:47:13.431Z,31.8
2018-08-24T03:48:14.918Z,31.8
2018-08-24T03:49:16.581Z,31.8
2018-08-24T03:50:18.037Z,32.7
2018-08-24T03:51:19.681Z,32.7
2018-08-24T03:52:21.170Z,32.3
2018-08-24T03:53:23.625Z,32.3
2018-08-24T03:54:25.520Z,32.3
2018-08-24T03:55:27.148Z,32.7
2018-08-24T03:56:28.609Z,32.7
2018-08-24T03:57:29.908Z,32.3
2018-08-24T03:58:31.529Z,31.8
2018-08-24T03:59:33.133Z,32.3
2018-08-24T04:00:34.592Z,33.2
2018-08-24T04:01:35.860Z,33.2
2018-08-24T04:02:37.297Z,32.7
2018-08-24T04:03:38.592Z,32.7
2018-08-24T04:04:40.215Z,32.3
2018-08-24T04:05:41.807Z,32.7
2018-08-24T04:06:43.275Z,32.3
2018-08-24T04:07:44.716Z,33.2
2018-08-24T04:08:46.348Z,32.7
2018-08-24T04:09:47.963Z,31.8
2018-08-24T04:10:49.555Z,32.3
2018-08-24T04:11:51.177Z,32.7
2018-08-24T04:12:53.389Z,33.2
2018-08-24T04:13:55.124Z,32.3
2018-08-24T04:14:56.757Z,33.2
2018-08-24T04:15:58.221Z,32.7
2018-08-24T04:16:59.823Z,32.3
2018-08-24T04:18:01.413Z,33.2
2018-08-24T04:19:02.860Z,32.7
2018-08-24T04:20:04.296Z,32.3
2018-08-24T04:21:05.885Z,31.8
2018-08-24T04:22:07.158Z,31.8
2018-08-24T04:23:08.607Z,32.7
2018-08-24T04:24:09.914Z,32.7
2018-08-24T04:25:11.511Z,32.7
2018-08-24T04:26:13.468Z,32.3
2018-08-24T04:27:14.975Z,31.8
2018-08-24T04:28:16.432Z,32.7
2018-08-24T04:29:18.055Z,32.3
2018-08-24T04:30:19.666Z,32.3
2018-08-24T04:31:21.120Z,32.3
2018-08-24T04:32:22.384Z,32.3
2018-08-24T04:33:23.666Z,32.7
2018-08-24T04:34:25.112Z,32.7
2018-08-24T04:35:26.739Z,32.3
2018-08-24T04:36:28.354Z,32.3
2018-08-24T04:37:29.994Z,31.8
2018-08-24T04:38:31.434Z,32.3
2018-08-24T04:39:33.063Z,32.3
2018-08-24T04:40:34.536Z,31.8
2018-08-24T04:41:36.012Z,31.8
2018-08-24T04:42:37.462Z,31.8
2018-08-24T04:43:39.065Z,32.7
2018-08-24T04:44:40.677Z,32.7
2018-08-24T04:45:42.966Z,31.8
2018-08-24T04:46:44.456Z,31.8
2018-08-24T04:47:46.088Z,32.3
2018-08-24T04:48:47.555Z,31.3
2018-08-24T04:49:49.003Z,32.3
2018-08-24T04:50:50.599Z,31.8
2018-08-24T04:51:52.067Z,32.7
2018-08-24T04:52:53.670Z,31.8
2018-08-24T04:53:54.946Z,31.8
2018-08-24T04:54:56.545Z,31.8
2018-08-24T04:55:58.164Z,32.7
2018-08-24T04:56:59.800Z,32.3
2018-08-24T04:58:01.430Z,32.3
2018-08-24T04:59:02.748Z,32.3
2018-08-24T05:00:04.387Z,32.3
2018-08-24T05:01:05.834Z,31.8
2018-08-24T05:02:07.292Z,31.8
2018-08-24T05:03:08.923Z,31.8
2018-08-24T05:04:10.567Z,32.3
2018-08-24T05:05:12.182Z,31.3
2018-08-24T05:06:13.652Z,32.3
2018-08-24T05:07:14.934Z,31.8
2018-08-24T05:08:16.546Z,31.8
2018-08-24T05:09:17.993Z,31.8
2018-08-24T05:10:19.601Z,31.8
2018-08-24T05:11:20.886Z,31.8
2018-08-24T05:12:22.514Z,31.8
2018-08-24T05:13:24.132Z,31.8
2018-08-24T05:14:25.559Z,31.3
2018-08-24T05:15:27.009Z,31.8
2018-08-24T05:16:28.463Z,31.8
2018-08-24T05:17:30.104Z,31.3
2018-08-24T05:18:31.711Z,31.3
2018-08-24T05:19:33.305Z,32.3
2018-08-24T05:20:34.961Z,31.8
2018-08-24T05:21:36.225Z,31.8
2018-08-24T05:22:37.885Z,31.8
2018-08-24T05:23:39.343Z,31.8
2018-08-24T05:24:41.173Z,31.8
2018-08-24T05:25:42.851Z,31.3
2018-08-24T05:26:44.306Z,31.3
2018-08-24T05:27:45.743Z,31.8
2018-08-24T05:28:47.353Z,31.3
2018-08-24T05:29:48.845Z,31.8
2018-08-24T05:30:50.124Z,31.3
2018-08-24T05:31:51.746Z,31.3
2018-08-24T05:32:52.869Z,31.8
2018-08-24T05:33:54.155Z,31.3
2018-08-24T05:34:55.592Z,31.3
2018-08-24T05:35:56.859Z,30.8
2018-08-24T05:36:58.460Z,31.3
2018-08-24T05:37:59.584Z,31.8
2018-08-24T05:39:01.041Z,31.3
2018-08-24T05:40:02.489Z,31.3
2018-08-24T05:41:03.918Z,31.3
2018-08-24T05:42:05.519Z,31.3
2018-08-24T05:43:06.807Z,31.8
2018-08-24T05:44:08.447Z,31.3
2018-08-24T05:45:10.044Z,31.8
2018-08-24T05:46:11.641Z,32.3
2018-08-24T05:47:13.272Z,31.8
2018-08-24T05:48:14.868Z,32.7
2018-08-24T05:49:16.495Z,32.3
2018-08-24T05:50:17.931Z,32.3
2018-08-24T05:51:19.552Z,32.3
2018-08-24T05:52:21.003Z,32.3
2018-08-24T05:53:22.473Z,31.8
2018-08-24T05:54:24.104Z,32.3
2018-08-24T05:55:25.559Z,32.7
2018-08-24T05:56:27.171Z,33.2
2018-08-24T05:57:28.805Z,31.8
2018-08-24T05:58:30.076Z,31.8
2018-08-24T05:59:31.702Z,32.7
2018-08-24T06:00:33.005Z,32.7
2018-08-24T06:01:34.281Z,32.7
2018-08-24T06:02:35.910Z,32.7
2018-08-24T06:03:37.533Z,31.8
2018-08-24T06:04:39.169Z,32.3
2018-08-24T06:05:41.033Z,32.3
2018-08-24T06:06:42.622Z,32.7
2018-08-24T06:07:44.223Z,32.7
2018-08-24T06:08:45.855Z,32.3
2018-08-24T06:09:47.320Z,32.7
2018-08-24T06:10:48.448Z,32.7
2018-08-24T06:11:49.890Z,32.3
2018-08-24T06:12:51.335Z,32.3
2018-08-24T06:13:52.601Z,32.3
2018-08-24T06:14:53.861Z,32.7
2018-08-24T06:15:55.976Z,32.3
2018-08-24T06:16:57.850Z,32.7
2018-08-24T06:17:59.463Z,32.7
2018-08-24T06:19:01.074Z,33.2
2018-08-24T06:20:02.755Z,31.8
2018-08-24T06:21:04.394Z,32.7
2018-08-24T06:22:05.854Z,32.7
2018-08-24T06:23:07.283Z,32.7
2018-08-24T06:24:08.741Z,32.3
2018-08-24T06:25:10.186Z,32.7
2018-08-24T06:26:11.660Z,32.3
2018-08-24T06:27:13.103Z,32.3
2018-08-24T06:28:14.591Z,32.3
2018-08-24T06:29:16.034Z,32.3
2018-08-24T06:30:17.699Z,32.7
2018-08-24T06:31:19.321Z,32.7
2018-08-24T06:32:20.811Z,32.3
2018-08-24T06:33:22.438Z,31.8
2018-08-24T06:34:24.073Z,32.3
2018-08-24T06:35:25.679Z,32.3
2018-08-24T06:36:27.313Z,31.8
2018-08-24T06:37:28.970Z,31.8
2018-08-24T06:38:30.457Z,32.3
2018-08-24T06:39:31.917Z,32.7
2018-08-24T06:40:33.541Z,32.7
2018-08-24T06:41:35.141Z,31.3
2018-08-24T06:42:36.595Z,32.3
2018-08-24T06:43:38.030Z,31.8
2018-08-24T06:44:39.490Z,32.3
2018-08-24T06:45:40.933Z,31.8
2018-08-24T06:46:42.549Z,32.7
2018-08-24T06:47:44.840Z,32.3
2018-08-24T06:48:46.624Z,32.3
2018-08-24T06:49:48.226Z,31.8
2018-08-24T06:50:49.668Z,31.8
2018-08-24T06:51:51.309Z,32.3
2018-08-24T06:52:52.845Z,31.8
2018-08-24T06:53:55.114Z,31.8
2018-08-24T06:54:56.825Z,32.3
2018-08-24T06:55:58.329Z,31.8
2018-08-24T06:56:59.965Z,31.8
2018-08-24T06:58:01.401Z,32.7
2018-08-24T06:59:02.875Z,31.8
2018-08-24T07:00:04.477Z,32.3
2018-08-24T07:01:06.098Z,31.8
2018-08-24T07:02:07.364Z,31.8
2018-08-24T07:03:08.831Z,31.8
2018-08-24T07:04:10.459Z,31.8
2018-08-24T07:05:11.904Z,31.3
2018-08-24T07:06:13.521Z,31.8
2018-08-24T07:07:14.984Z,31.8
2018-08-24T07:08:16.613Z,33.7
2018-08-24T07:09:18.241Z,34.7
2018-08-24T07:10:19.689Z,35.7
2018-08-24T07:11:21.312Z,35.2
2018-08-24T07:12:22.940Z,35.2
2018-08-24T07:13:24.541Z,35.2
2018-08-24T07:14:26.180Z,35.7
2018-08-24T07:15:27.806Z,35.7
2018-08-24T07:16:29.432Z,35.7
2018-08-24T07:17:30.711Z,35.7
2018-08-24T07:18:32.318Z,35.7
2018-08-24T07:19:33.941Z,35.2
2018-08-24T07:20:35.392Z,35.7
2018-08-24T07:21:36.847Z,35.2
2018-08-24T07:22:38.482Z,35.2
2018-08-24T07:23:39.925Z,35.7
2018-08-24T07:24:41.389Z,35.7
2018-08-24T07:25:42.665Z,34.7
2018-08-24T07:26:43.956Z,35.2
2018-08-24T07:27:45.582Z,34.7
2018-08-24T07:28:47.031Z,34.7
2018-08-24T07:29:48.662Z,34.7
2018-08-24T07:30:50.264Z,35.2
2018-08-24T07:31:51.882Z,34.2
2018-08-24T07:32:53.532Z,34.2
2018-08-24T07:33:55.011Z,34.2
2018-08-24T07:34:56.314Z,33.7
2018-08-24T07:35:57.918Z,34.7
2018-08-24T07:36:59.373Z,33.2
2018-08-24T07:38:01.005Z,34.2
2018-08-24T07:39:02.460Z,33.7
2018-08-24T07:40:04.078Z,34.7
2018-08-24T07:41:05.526Z,33.7
2018-08-24T07:42:06.830Z,33.7
2018-08-24T07:43:08.290Z,34.2
2018-08-24T07:44:09.904Z,34.2
2018-08-24T07:45:11.723Z,33.7
2018-08-24T07:46:13.489Z,33.7
2018-08-24T07:47:15.176Z,34.2
2018-08-24T07:48:16.643Z,34.2
2018-08-24T07:49:18.084Z,34.2
2018-08-24T07:50:19.723Z,33.7
2018-08-24T07:51:21.147Z,34.2
2018-08-24T07:52:22.786Z,33.2
2018-08-24T07:53:24.235Z,34.2
2018-08-24T07:54:25.680Z,34.7
2018-08-24T07:55:27.347Z,34.7
2018-08-24T07:56:29.159Z,34.2
2018-08-24T07:57:30.838Z,33.7
2018-08-24T07:58:32.285Z,34.2
2018-08-24T07:59:33.573Z,33.7
2018-08-24T08:00:35.182Z,34.7
2018-08-24T08:01:36.477Z,34.7
2018-08-24T08:02:37.929Z,33.7
2018-08-24T08:03:39.526Z,34.2
2018-08-24T08:04:40.985Z,34.2
2018-08-24T08:05:42.596Z,34.2
2018-08-24T08:06:44.034Z,34.2
2018-08-24T08:07:45.602Z,34.7
2018-08-24T08:08:47.232Z,34.2
2018-08-24T08:09:48.866Z,34.2
2018-08-24T08:10:50.487Z,34.2
2018-08-24T08:11:52.083Z,34.2
2018-08-24T08:12:53.709Z,33.7
2018-08-24T08:13:55.185Z,34.7
2018-08-24T08:14:56.795Z,34.7
2018-08-24T08:15:58.259Z,34.2
2018-08-24T08:16:59.858Z,34.7
2018-08-24T08:18:01.500Z,33.7
2018-08-24T08:19:03.186Z,34.2
2018-08-24T08:20:04.636Z,34.2
2018-08-24T08:21:06.270Z,34.2
2018-08-24T08:22:07.910Z,33.7
2018-08-24T08:23:09.388Z,33.7
2018-08-24T08:24:10.823Z,35.2
2018-08-24T08:25:12.301Z,33.2
2018-08-24T08:26:13.581Z,33.7
2018-08-24T08:27:15.183Z,33.7
2018-08-24T08:28:16.642Z,34.2
2018-08-24T08:29:18.073Z,34.2
2018-08-24T08:30:19.524Z,33.7
2018-08-24T08:31:21.168Z,34.2
2018-08-24T08:32:22.607Z,33.7
2018-08-24T08:33:24.221Z,32.7
2018-08-24T08:34:25.831Z,33.2
2018-08-24T08:35:27.446Z,33.2
2018-08-24T08:36:28.904Z,33.2
2018-08-24T08:37:30.529Z,33.2
2018-08-24T08:38:31.985Z,33.7
2018-08-24T08:39:33.294Z,34.2
2018-08-24T08:40:34.929Z,33.7
2018-08-24T08:41:36.552Z,33.2
2018-08-24T08:42:38.010Z,32.7
2018-08-24T08:43:39.443Z,33.2
2018-08-24T08:44:40.895Z,33.7
2018-08-24T08:45:42.359Z,32.7
2018-08-24T08:46:44.000Z,33.2
2018-08-24T08:47:45.476Z,33.2
2018-08-24T08:48:47.086Z,33.2
2018-08-24T08:49:48.697Z,32.7
2018-08-24T08:50:50.146Z,34.2
2018-08-24T08:51:51.587Z,33.2
2018-08-24T08:52:53.231Z,33.7
2018-08-24T08:53:54.873Z,32.7
2018-08-24T08:54:56.382Z,33.2
2018-08-24T08:55:57.821Z,33.2
2018-08-24T08:56:59.421Z,32.7
2018-08-24T08:58:01.030Z,32.7
2018-08-24T08:59:02.473Z,32.3
2018-08-24T09:00:04.084Z,32.7
2018-08-24T09:01:05.519Z,32.7
2018-08-24T09:02:06.784Z,32.7
2018-08-24T09:03:08.227Z,33.2
2018-08-24T09:04:09.688Z,32.7
2018-08-24T09:05:11.287Z,33.2
2018-08-24T09:06:13.998Z,32.7
2018-08-24T09:07:15.803Z,32.7
2018-08-24T09:08:17.273Z,33.2
2018-08-24T09:09:18.558Z,32.7
2018-08-24T09:10:20.170Z,32.7
2018-08-24T09:11:21.791Z,31.8
2018-08-24T09:12:23.242Z,32.3
2018-08-24T09:13:24.718Z,32.3
2018-08-24T09:14:26.396Z,32.3
2018-08-24T09:15:27.997Z,32.3
2018-08-24T09:16:29.449Z,32.3
2018-08-24T09:17:31.093Z,32.3
2018-08-24T09:18:33.150Z,32.3
2018-08-24T09:19:34.888Z,32.3
2018-08-24T09:20:36.502Z,32.3
2018-08-24T09:21:38.092Z,32.3
2018-08-24T09:22:39.524Z,32.3
2018-08-24T09:23:40.810Z,31.8
2018-08-24T09:24:42.436Z,32.3
2018-08-24T09:25:44.630Z,31.8
2018-08-24T09:26:46.493Z,32.3
2018-08-24T09:27:48.122Z,31.3
2018-08-24T09:28:49.707Z,31.3
2018-08-24T09:29:51.231Z,32.3
2018-08-24T09:30:52.676Z,32.7
2018-08-24T09:31:54.304Z,32.3
2018-08-24T09:32:56.492Z,31.8
2018-08-24T09:33:58.363Z,32.3
2018-08-24T09:34:59.997Z,31.8
2018-08-24T09:36:01.634Z,32.3
2018-08-24T09:37:03.073Z,32.3
2018-08-24T09:38:05.183Z,32.7
2018-08-24T09:39:06.589Z,32.3
2018-08-24T09:40:08.231Z,31.8
2018-08-24T09:41:09.516Z,31.8
2018-08-24T09:42:11.136Z,32.3
2018-08-24T09:43:13.398Z,31.8
2018-08-24T09:44:14.859Z,32.7
2018-08-24T09:45:16.470Z,32.3
2018-08-24T09:46:18.087Z,32.7
2018-08-24T09:47:19.709Z,32.7
2018-08-24T09:48:21.355Z,32.7
2018-08-24T09:49:22.971Z,32.3
2018-08-24T09:50:24.271Z,32.3
2018-08-24T09:51:25.901Z,32.3
2018-08-24T09:52:27.514Z,32.7
2018-08-24T09:53:29.129Z,32.3
2018-08-24T09:54:30.752Z,32.7
2018-08-24T09:55:32.063Z,32.3
2018-08-24T09:56:33.593Z,33.2
2018-08-24T09:57:35.050Z,32.3
2018-08-24T09:58:36.682Z,32.7
2018-08-24T09:59:38.313Z,32.7
2018-08-24T10:00:39.914Z,32.3
2018-08-24T10:01:41.557Z,32.3
2018-08-24T10:02:43.521Z,33.2
2018-08-24T10:03:45.035Z,32.7
2018-08-24T10:04:46.307Z,32.7
2018-08-24T10:05:47.762Z,32.7
2018-08-24T10:06:50.205Z,33.2
2018-08-24T10:07:52.064Z,33.2
2018-08-24T10:08:53.523Z,32.3
2018-08-24T10:09:54.982Z,32.7
2018-08-24T10:10:56.459Z,32.3
2018-08-24T10:11:58.094Z,32.7
2018-08-24T10:12:59.725Z,33.2
2018-08-24T10:14:01.192Z,33.7
2018-08-24T10:15:02.816Z,33.2
2018-08-24T10:16:04.471Z,33.2
2018-08-24T10:17:06.143Z,33.2
2018-08-24T10:18:07.778Z,33.2
2018-08-24T10:19:09.233Z,33.2
2018-08-24T10:20:10.696Z,33.2
2018-08-24T10:21:12.306Z,33.2
2018-08-24T10:22:13.943Z,32.3
2018-08-24T10:23:15.802Z,32.7
2018-08-24T10:24:17.249Z,32.3
2018-08-24T10:25:18.702Z,32.7
2018-08-24T10:26:20.155Z,32.7
2018-08-24T10:27:21.610Z,32.7
2018-08-24T10:28:23.051Z,33.2
2018-08-24T10:29:24.402Z,32.7
2018-08-24T10:30:26.178Z,33.2
2018-08-24T10:31:27.784Z,32.7
2018-08-24T10:32:29.410Z,32.7
2018-08-24T10:33:31.023Z,32.3
2018-08-24T10:34:32.701Z,33.2
2018-08-24T10:35:34.157Z,32.7
2018-08-24T10:36:35.601Z,32.7
2018-08-24T10:37:37.055Z,32.7
2018-08-24T10:38:38.485Z,32.7
2018-08-24T10:39:40.118Z,32.3
2018-08-24T10:40:41.496Z,32.3
2018-08-24T10:41:43.030Z,32.7
2018-08-24T10:42:44.931Z,32.7
2018-08-24T10:43:46.439Z,32.3
2018-08-24T10:44:47.724Z,32.7
2018-08-24T10:45:49.147Z,32.3
2018-08-24T10:46:50.803Z,32.3
2018-08-24T10:47:52.311Z,32.3
2018-08-24T10:48:53.913Z,32.3
2018-08-24T10:49:55.364Z,32.3
2018-08-24T10:50:56.795Z,32.7
2018-08-24T10:51:58.543Z,32.7
2018-08-24T10:53:00.114Z,32.7
2018-08-24T10:54:01.731Z,32.7
2018-08-24T10:55:03.790Z,31.8
2018-08-24T10:56:05.558Z,31.8
2018-08-24T10:57:07.152Z,32.3
2018-08-24T10:58:08.601Z,31.8
2018-08-24T10:59:10.240Z,32.7
2018-08-24T11:00:11.866Z,31.8
2018-08-24T11:01:13.329Z,31.8
2018-08-24T11:02:15.125Z,32.3
2018-08-24T11:03:16.748Z,31.8
2018-08-24T11:04:18.220Z,32.3
2018-08-24T11:05:19.943Z,31.3
2018-08-24T11:06:21.647Z,32.3
2018-08-24T11:07:24.052Z,31.8
2018-08-24T11:08:25.980Z,32.3
2018-08-24T11:09:27.625Z,31.8
2018-08-24T11:10:29.224Z,31.8
2018-08-24T11:11:30.850Z,31.8
2018-08-24T11:12:32.298Z,31.8
2018-08-24T11:13:33.746Z,32.3
2018-08-24T11:14:35.394Z,31.3
2018-08-24T11:15:37.050Z,31.8
2018-08-24T11:16:38.431Z,32.3
2018-08-24T11:17:40.103Z,31.8
2018-08-24T11:18:41.795Z,31.8
2018-08-24T11:19:43.408Z,31.8
2018-08-24T11:20:44.873Z,32.3
2018-08-24T11:21:46.489Z,31.8
2018-08-24T11:22:48.122Z,31.8
2018-08-24T11:23:49.723Z,31.8
2018-08-24T11:24:51.343Z,31.3
2018-08-24T11:25:52.966Z,31.8
2018-08-24T11:26:55.160Z,31.8
2018-08-24T11:27:56.972Z,32.3
2018-08-24T11:28:58.414Z,31.8
2018-08-24T11:29:59.853Z,32.3
2018-08-24T11:31:01.134Z,31.3
2018-08-24T11:32:02.766Z,31.8
2018-08-24T11:33:04.514Z,32.3
2018-08-24T11:34:06.772Z,31.3
2018-08-24T11:35:08.644Z,31.3
2018-08-24T11:36:11.201Z,31.8
2018-08-24T11:37:12.922Z,31.8
2018-08-24T11:38:14.522Z,31.3
2018-08-24T11:39:16.170Z,31.3
2018-08-24T11:40:17.628Z,31.3
2018-08-24T11:41:19.247Z,32.3
2018-08-24T11:42:20.956Z,31.8
2018-08-24T11:43:22.588Z,31.8
2018-08-24T11:44:24.045Z,32.3
2018-08-24T11:45:25.180Z,32.3
2018-08-24T11:46:26.811Z,32.3
2018-08-24T11:47:28.261Z,32.3
2018-08-24T11:48:29.849Z,32.7
2018-08-24T11:49:31.288Z,31.8
2018-08-24T11:50:32.906Z,32.3
2018-08-24T11:51:34.344Z,31.8
2018-08-24T11:52:35.630Z,31.8
2018-08-24T11:53:37.100Z,32.3
2018-08-24T11:54:39.127Z,32.3
2018-08-24T11:55:40.586Z,32.3
2018-08-24T11:56:42.226Z,32.7
2018-08-24T11:57:43.873Z,32.3
2018-08-24T11:58:45.489Z,32.7
2018-08-24T11:59:47.358Z,31.8
2018-08-24T12:00:49.142Z,32.3
2018-08-24T12:01:50.595Z,32.3
2018-08-24T12:02:52.048Z,32.3
2018-08-24T12:03:53.691Z,32.3
2018-08-24T12:04:55.317Z,32.7
2018-08-24T12:05:56.770Z,32.7
2018-08-24T12:06:58.226Z,32.7
2018-08-24T12:08:00.778Z,33.2
2018-08-24T12:09:02.794Z,32.7
2018-08-24T12:10:04.403Z,32.3
2018-08-24T12:11:05.836Z,33.2
2018-08-24T12:12:07.737Z,32.3
2018-08-24T12:13:09.524Z,32.3
2018-08-24T12:14:11.563Z,32.7
2018-08-24T12:15:13.133Z,33.2
2018-08-24T12:16:14.757Z,32.3
2018-08-24T12:17:16.374Z,32.7
2018-08-24T12:18:18.090Z,32.7
2018-08-24T12:19:19.691Z,32.3
2018-08-24T12:20:21.323Z,32.7
2018-08-24T12:21:23.444Z,32.3
2018-08-24T12:22:25.238Z,32.7
2018-08-24T12:23:26.856Z,32.3
2018-08-24T12:24:28.969Z,32.7
2018-08-24T12:25:30.680Z,32.3
2018-08-24T12:26:32.131Z,32.7
2018-08-24T12:27:33.582Z,32.7
2018-08-24T12:28:35.042Z,32.7
2018-08-24T12:29:36.647Z,33.2
2018-08-24T12:30:37.933Z,32.7
2018-08-24T12:31:39.048Z,31.8
2018-08-24T12:32:40.670Z,32.7
2018-08-24T12:33:42.284Z,32.3
2018-08-24T12:34:43.981Z,32.3
2018-08-24T12:35:45.572Z,32.7
2018-08-24T12:36:47.012Z,32.7
2018-08-24T12:37:48.318Z,33.2
2018-08-24T12:38:49.756Z,32.7
2018-08-24T12:39:51.366Z,32.7
2018-08-24T12:40:52.974Z,31.8
2018-08-24T12:41:54.596Z,32.7
2018-08-24T12:42:56.058Z,32.7
2018-08-24T12:43:57.690Z,32.3
2018-08-24T12:44:59.331Z,32.3
2018-08-24T12:46:00.978Z,32.3
2018-08-24T12:47:02.248Z,32.7
2018-08-24T12:48:03.848Z,32.7
2018-08-24T12:49:05.452Z,31.8
2018-08-24T12:50:07.063Z,32.7
2018-08-24T12:51:08.574Z,32.3
2018-08-24T12:52:10.644Z,31.8
2018-08-24T12:53:12.450Z,31.8
2018-08-24T12:54:14.067Z,32.3
2018-08-24T12:55:15.689Z,32.3
2018-08-24T12:56:17.314Z,32.3
2018-08-24T12:57:18.913Z,31.8
2018-08-24T12:58:20.529Z,31.8
2018-08-24T12:59:21.978Z,32.3
2018-08-24T13:00:23.445Z,31.8
2018-08-24T13:01:25.072Z,31.8
2018-08-24T13:02:26.513Z,32.7
2018-08-24T13:03:28.149Z,31.8
2018-08-24T13:04:29.781Z,31.8
2018-08-24T13:05:31.233Z,31.8
2018-08-24T13:06:32.874Z,31.8
2018-08-24T13:07:34.510Z,31.8
2018-08-24T13:08:36.350Z,31.3
2018-08-24T13:09:37.925Z,31.3
2018-08-24T13:10:39.363Z,32.3
2018-08-24T13:11:40.647Z,31.8
2018-08-24T13:12:42.287Z,31.8
2018-08-24T13:13:43.748Z,32.3
2018-08-24T13:14:45.343Z,32.3
2018-08-24T13:15:46.815Z,31.3
2018-08-24T13:16:48.453Z,31.8
2018-08-24T13:17:49.749Z,31.8
2018-08-24T13:18:51.414Z,32.3
2018-08-24T13:19:53.040Z,32.3
2018-08-24T13:20:54.511Z,32.3
2018-08-24T13:21:56.147Z,31.8
2018-08-24T13:22:57.430Z,32.7
2018-08-24T13:23:58.893Z,31.3
2018-08-24T13:25:00.346Z,31.8
2018-08-24T13:26:01.819Z,31.8
2018-08-24T13:27:03.453Z,31.8
2018-08-24T13:28:04.741Z,30.8
2018-08-24T13:29:06.177Z,31.8
2018-08-24T13:30:07.826Z,31.8
2018-08-24T13:31:09.285Z,31.3
2018-08-24T13:32:10.564Z,31.3
2018-08-24T13:33:12.014Z,31.8
2018-08-24T13:34:13.478Z,32.3
2018-08-24T13:35:14.774Z,31.3
2018-08-24T13:36:16.406Z,31.3
2018-08-24T13:37:17.862Z,31.8
2018-08-24T13:38:19.463Z,31.3
2018-08-24T13:39:21.072Z,31.3